Terminal Aerodrome Forecast
Issued by NWS

Home | Current Version | Previous Version | Text Only | Print | Product List | Glossary On
Versions: 1 2 3 4 5 6 7 8 9 10 11 12 13 14
000
FTUS45 KFGZ 230400 AAB
TAFSEZ
TAF AMD
KSEZ 230407Z 2304/2324 33011KT P6SM FEW060
      TEMPO 2305/2309 32012G22KT
     FM231000 04018G32KT P6SM SKC
     FM232100 05010G20KT P6SM SKC=

USA.gov is the U.S. government's official web portal to all federal, state and local government web resources and services.